createdAt,value
2018-09-05T00:00:23.341Z,0.00
2018-09-05T00:01:23.368Z,0.00
2018-09-05T00:02:23.395Z,0.00
2018-09-05T00:03:23.431Z,0.00
2018-09-05T00:04:23.456Z,0.00
2018-09-05T00:05:23.493Z,0.00
2018-09-05T00:06:23.520Z,0.00
2018-09-05T00:07:23.555Z,0.00
2018-09-05T00:08:23.584Z,0.00
2018-09-05T00:09:23.616Z,0.00
2018-09-05T00:10:23.644Z,0.00
2018-09-05T00:11:23.670Z,0.00
2018-09-05T00:12:23.701Z,0.00
2018-09-05T00:13:23.743Z,0.00
2018-09-05T00:14:23.819Z,0.00
2018-09-05T00:15:23.792Z,0.00
2018-09-05T00:16:23.824Z,0.00
2018-09-05T00:17:23.862Z,0.00
2018-09-05T00:18:23.887Z,0.00
2018-09-05T00:19:23.916Z,0.00
2018-09-05T00:20:23.950Z,0.00
2018-09-05T00:21:23.979Z,0.00
2018-09-05T00:22:24.013Z,0.00
2018-09-05T00:23:24.046Z,0.00
2018-09-05T00:24:24.075Z,0.00
2018-09-05T00:25:24.106Z,0.00
2018-09-05T00:26:24.135Z,0.00
2018-09-05T00:27:24.163Z,0.00
2018-09-05T00:28:24.195Z,0.00
2018-09-05T00:29:24.227Z,0.00
2018-09-05T00:30:24.256Z,0.00
2018-09-05T00:31:24.289Z,0.00
2018-09-05T00:32:24.327Z,0.00
2018-09-05T00:33:24.346Z,0.00
2018-09-05T00:34:24.375Z,0.00
2018-09-05T00:35:24.414Z,0.00
2018-09-05T00:36:24.484Z,0.00
2018-09-05T00:37:24.477Z,0.00
2018-09-05T00:38:24.503Z,0.00
2018-09-05T00:39:24.542Z,0.00
2018-09-05T00:40:24.564Z,0.00
2018-09-05T00:41:24.596Z,0.00
2018-09-05T00:42:24.625Z,0.00
2018-09-05T00:43:24.654Z,0.00
2018-09-05T00:44:24.682Z,0.00
2018-09-05T00:45:24.724Z,0.00
2018-09-05T00:46:24.744Z,0.00
2018-09-05T00:47:24.779Z,0.00
2018-09-05T00:48:24.808Z,0.00
2018-09-05T00:49:24.838Z,0.00
2018-09-05T00:50:24.873Z,0.00
2018-09-05T00:51:24.904Z,0.00
2018-09-05T00:52:24.934Z,0.00
2018-09-05T00:53:24.959Z,0.00
2018-09-05T00:54:24.988Z,0.00
2018-09-05T00:55:25.027Z,0.00
2018-09-05T00:56:25.059Z,0.00
2018-09-05T00:57:25.087Z,0.00
2018-09-05T00:58:25.124Z,0.00
2018-09-05T00:59:25.144Z,0.00
2018-09-05T01:00:25.176Z,0.00
2018-09-05T01:01:25.208Z,0.00
2018-09-05T01:02:25.239Z,0.00
2018-09-05T01:03:25.265Z,0.00
2018-09-05T01:04:25.302Z,0.00
2018-09-05T01:05:25.324Z,0.00
2018-09-05T01:06:25.382Z,0.00
2018-09-05T01:07:25.393Z,0.00
2018-09-05T01:08:25.423Z,0.00
2018-09-05T01:09:25.455Z,0.00
2018-09-05T01:10:25.481Z,0.00
2018-09-05T01:11:25.512Z,0.00
2018-09-05T01:12:25.545Z,0.00
2018-09-05T01:13:25.582Z,0.00
2018-09-05T01:14:25.634Z,0.00
2018-09-05T01:15:25.634Z,0.00
2018-09-05T01:16:25.666Z,0.00
2018-09-05T01:17:25.706Z,0.00
2018-09-05T01:18:25.742Z,0.00
2018-09-05T01:19:25.761Z,0.00
2018-09-05T01:20:25.790Z,0.00
2018-09-05T01:21:25.826Z,0.00
2018-09-05T01:22:25.853Z,0.00
2018-09-05T01:23:25.882Z,0.00
2018-09-05T01:24:25.975Z,0.00
2018-09-05T01:25:25.946Z,0.00
2018-09-05T01:26:25.975Z,0.00
2018-09-05T01:27:26.004Z,0.00
2018-09-05T01:28:26.035Z,0.00
2018-09-05T01:29:26.068Z,0.00
2018-09-05T01:30:26.093Z,0.00
2018-09-05T01:31:26.133Z,0.00
2018-09-05T01:32:26.154Z,0.00
2018-09-05T01:33:26.217Z,0.00
2018-09-05T01:34:26.218Z,0.00
2018-09-05T01:35:26.243Z,0.00
2018-09-05T01:36:26.282Z,0.00
2018-09-05T01:37:26.309Z,0.00
2018-09-05T01:38:26.342Z,0.00
2018-09-05T01:39:26.374Z,0.00
2018-09-05T01:40:26.402Z,0.00
2018-09-05T01:41:26.434Z,0.00
2018-09-05T01:42:26.463Z,0.00
2018-09-05T01:43:26.497Z,0.00
2018-09-05T01:44:26.526Z,0.00
2018-09-05T01:45:26.568Z,0.00
2018-09-05T01:46:26.590Z,0.00
2018-09-05T01:47:26.619Z,0.00
2018-09-05T01:48:26.660Z,0.00
2018-09-05T01:49:26.682Z,0.00
2018-09-05T01:50:26.712Z,0.00
2018-09-05T01:51:26.750Z,0.00
2018-09-05T01:52:26.776Z,0.00
2018-09-05T01:53:26.798Z,0.00
2018-09-05T01:54:26.830Z,0.00
2018-09-05T01:55:26.864Z,0.00
2018-09-05T01:56:26.896Z,0.00
2018-09-05T01:57:26.924Z,0.00
2018-09-05T01:58:26.956Z,0.00
2018-09-05T01:59:26.987Z,0.00
2018-09-05T02:00:27.019Z,0.00
2018-09-05T02:01:27.054Z,0.00
2018-09-05T02:02:27.076Z,0.00
2018-09-05T02:03:27.110Z,0.00
2018-09-05T02:04:27.139Z,0.00
2018-09-05T02:05:27.175Z,0.00
2018-09-05T02:06:27.209Z,0.00
2018-09-05T02:07:27.231Z,0.00
2018-09-05T02:08:27.277Z,0.00
2018-09-05T02:09:27.293Z,0.00
2018-09-05T02:10:27.325Z,0.00
2018-09-05T02:11:27.354Z,0.00
2018-09-05T02:12:27.390Z,0.00
2018-09-05T02:13:27.418Z,0.00
2018-09-05T02:14:27.451Z,0.00
2018-09-05T02:15:27.482Z,0.00
2018-09-05T02:16:27.509Z,0.00
2018-09-05T02:17:27.550Z,0.00
2018-09-05T02:18:27.573Z,0.00
2018-09-05T02:19:27.598Z,0.00
2018-09-05T02:20:27.643Z,0.00
2018-09-05T02:21:27.666Z,0.00
2018-09-05T02:22:27.699Z,0.00
2018-09-05T02:23:27.725Z,0.00
2018-09-05T02:24:27.756Z,0.00
2018-09-05T02:25:27.788Z,0.00
2018-09-05T02:26:27.817Z,0.00
2018-09-05T02:27:27.849Z,0.00
2018-09-05T02:28:27.877Z,0.00
2018-09-05T02:29:27.906Z,0.00
2018-09-05T02:30:27.938Z,0.00
2018-09-05T02:31:27.971Z,0.00
2018-09-05T02:32:28.012Z,0.00
2018-09-05T02:33:28.041Z,0.00
2018-09-05T02:34:28.065Z,0.00
2018-09-05T02:35:28.096Z,0.00
2018-09-05T02:36:28.126Z,0.00
2018-09-05T02:37:28.154Z,0.00
2018-09-05T02:38:28.186Z,0.00
2018-09-05T02:39:28.212Z,0.00
2018-09-05T02:40:28.270Z,0.00
2018-09-05T02:41:28.285Z,0.00
2018-09-05T02:42:28.310Z,0.00
2018-09-05T02:43:28.340Z,0.00
2018-09-05T02:44:28.372Z,0.00
2018-09-05T02:45:28.400Z,0.00
2018-09-05T02:46:28.430Z,0.00
2018-09-05T02:47:28.471Z,0.00
2018-09-05T02:48:28.503Z,0.00
2018-09-05T02:49:28.522Z,0.00
2018-09-05T02:50:28.561Z,0.00
2018-09-05T02:51:28.583Z,0.00
2018-09-05T02:52:28.611Z,0.00
2018-09-05T02:53:28.644Z,0.00
2018-09-05T02:54:28.672Z,0.00
2018-09-05T02:55:28.704Z,0.00
2018-09-05T02:56:28.736Z,0.00
2018-09-05T02:57:28.769Z,0.00
2018-09-05T02:58:28.800Z,0.00
2018-09-05T02:59:28.835Z,0.00
2018-09-05T03:00:28.860Z,0.00
2018-09-05T03:01:28.894Z,0.00
2018-09-05T03:02:28.925Z,0.00
2018-09-05T03:03:28.951Z,0.00
2018-09-05T03:04:28.980Z,0.00
2018-09-05T03:05:29.018Z,0.00
2018-09-05T03:06:29.046Z,0.00
2018-09-05T03:07:29.069Z,0.00
2018-09-05T03:08:29.104Z,0.00
2018-09-05T03:09:29.220Z,0.00
2018-09-05T03:10:29.192Z,0.00
2018-09-05T03:11:29.205Z,0.00
2018-09-05T03:12:29.233Z,0.00
2018-09-05T03:13:29.259Z,0.00
2018-09-05T03:14:29.288Z,0.00
2018-09-05T03:15:29.322Z,0.00
2018-09-05T03:16:29.352Z,0.00
2018-09-05T03:17:29.381Z,0.00
2018-09-05T03:18:29.409Z,0.00
2018-09-05T03:19:29.445Z,0.00
2018-09-05T03:20:29.467Z,0.00
2018-09-05T03:21:29.500Z,0.00
2018-09-05T03:22:29.533Z,0.00
2018-09-05T03:23:29.629Z,0.00
2018-09-05T03:24:29.597Z,0.00
2018-09-05T03:25:29.628Z,0.00
2018-09-05T03:26:29.657Z,0.00
2018-09-05T03:27:29.693Z,0.00
2018-09-05T03:28:29.722Z,0.00
2018-09-05T03:29:29.753Z,0.00
2018-09-05T03:30:29.780Z,0.00
2018-09-05T03:31:29.811Z,0.00
2018-09-05T03:32:29.967Z,0.00
2018-09-05T03:33:29.872Z,0.00
2018-09-05T03:34:29.900Z,0.00
2018-09-05T03:35:29.932Z,0.00
2018-09-05T03:36:29.964Z,0.00
2018-09-05T03:37:29.993Z,0.00
2018-09-05T03:38:30.027Z,0.00
2018-09-05T03:39:30.059Z,0.00
2018-09-05T03:40:30.088Z,0.00
2018-09-05T03:41:30.119Z,0.00
2018-09-05T03:42:30.154Z,0.00
2018-09-05T03:43:30.189Z,0.00
2018-09-05T03:44:30.224Z,0.00
2018-09-05T03:45:30.238Z,0.00
2018-09-05T03:46:30.266Z,0.00
2018-09-05T03:47:30.297Z,0.00
2018-09-05T03:48:30.332Z,0.00
2018-09-05T03:49:30.361Z,0.00
2018-09-05T03:50:30.390Z,0.00
2018-09-05T03:51:30.422Z,0.00
2018-09-05T03:52:30.454Z,0.00
2018-09-05T03:53:30.487Z,0.00
2018-09-05T03:54:30.514Z,0.00
2018-09-05T03:55:30.545Z,0.00
2018-09-05T03:56:30.579Z,0.00
2018-09-05T03:57:30.609Z,0.00
2018-09-05T03:58:30.638Z,0.00
2018-09-05T03:59:30.667Z,0.00
2018-09-05T04:00:30.695Z,0.00
2018-09-05T04:01:30.727Z,0.00
2018-09-05T04:02:30.756Z,0.00
2018-09-05T04:03:30.792Z,0.00
2018-09-05T04:04:30.826Z,0.00
2018-09-05T04:05:30.852Z,0.00
2018-09-05T04:06:30.885Z,0.00
2018-09-05T04:07:30.913Z,0.00
2018-09-05T04:08:30.960Z,0.00
2018-09-05T04:09:30.974Z,0.00
2018-09-05T04:10:31.024Z,0.00
2018-09-05T04:11:31.034Z,0.00
2018-09-05T04:12:31.071Z,0.00
2018-09-05T04:13:31.088Z,0.00
2018-09-05T04:14:31.129Z,0.00
2018-09-05T04:15:31.158Z,0.00
2018-09-05T04:16:31.184Z,0.00
2018-09-05T04:17:31.226Z,0.00
2018-09-05T04:18:31.251Z,0.00
2018-09-05T04:19:31.283Z,0.00
2018-09-05T04:20:31.313Z,0.00
2018-09-05T04:21:31.336Z,0.00
2018-09-05T04:22:31.374Z,0.00
2018-09-05T04:23:31.413Z,0.00
2018-09-05T04:24:31.429Z,0.00
2018-09-05T04:25:31.464Z,0.00
2018-09-05T04:26:31.493Z,0.00
2018-09-05T04:27:31.526Z,0.00
2018-09-05T04:28:31.581Z,0.00
2018-09-05T04:29:31.679Z,0.00
2018-09-05T04:30:31.614Z,0.00
2018-09-05T04:31:31.645Z,0.00
2018-09-05T04:32:31.685Z,0.00
2018-09-05T04:33:31.724Z,0.00
2018-09-05T04:34:31.747Z,0.00
2018-09-05T04:35:31.765Z,0.00
2018-09-05T04:36:31.820Z,0.00
2018-09-05T04:37:31.832Z,0.00
2018-09-05T04:38:31.861Z,0.00
2018-09-05T04:39:31.891Z,0.00
2018-09-05T04:40:31.920Z,0.00
2018-09-05T04:41:31.952Z,0.00
2018-09-05T04:42:31.985Z,0.00
2018-09-05T04:43:32.016Z,0.00
2018-09-05T04:44:32.044Z,0.00
2018-09-05T04:45:32.080Z,0.00
2018-09-05T04:46:32.113Z,0.00
2018-09-05T04:47:32.142Z,0.00
2018-09-05T04:48:32.169Z,0.00
2018-09-05T04:49:32.206Z,0.00
2018-09-05T04:50:32.228Z,0.00
2018-09-05T04:51:32.270Z,0.00
2018-09-05T04:52:32.328Z,5.63
2018-09-05T04:53:32.317Z,5.63
2018-09-05T04:54:32.347Z,5.63
2018-09-05T04:55:32.383Z,5.63
2018-09-05T04:56:32.413Z,5.63
2018-09-05T04:57:32.441Z,5.63
2018-09-05T04:58:32.544Z,5.63
2018-09-05T04:59:32.502Z,11.25
2018-09-05T05:00:32.537Z,11.25
2018-09-05T05:01:32.570Z,11.25
2018-09-05T05:02:32.595Z,11.25
2018-09-05T05:03:32.627Z,16.88
2018-09-05T05:04:32.682Z,16.88
2018-09-05T05:05:32.763Z,16.88
2018-09-05T05:06:32.717Z,16.88
2018-09-05T05:07:32.748Z,22.50
2018-09-05T05:08:32.779Z,22.50
2018-09-05T05:09:32.807Z,22.50
2018-09-05T05:10:32.841Z,22.50
2018-09-05T05:11:32.877Z,28.13
2018-09-05T05:12:32.922Z,28.13
2018-09-05T05:13:32.936Z,28.13
2018-09-05T05:14:32.963Z,33.75
2018-09-05T05:15:32.991Z,33.75
2018-09-05T05:16:33.027Z,33.75
2018-09-05T05:17:33.054Z,39.38
2018-09-05T05:18:33.088Z,39.38
2018-09-05T05:19:33.112Z,39.38
2018-09-05T05:20:33.147Z,45.00
2018-09-05T05:21:33.181Z,45.00
2018-09-05T05:22:33.208Z,45.00
2018-09-05T05:23:33.293Z,50.63
2018-09-05T05:24:33.272Z,50.63
2018-09-05T05:25:33.301Z,50.63
2018-09-05T05:26:33.329Z,50.63
2018-09-05T05:27:33.358Z,56.25
2018-09-05T05:28:33.394Z,56.25
2018-09-05T05:29:33.419Z,61.88
2018-09-05T05:30:33.461Z,61.88
2018-09-05T05:31:33.480Z,61.88
2018-09-05T05:32:33.555Z,61.88
2018-09-05T05:33:33.550Z,67.50
2018-09-05T05:34:33.572Z,67.50
2018-09-05T05:35:33.604Z,67.50
2018-09-05T05:36:33.642Z,73.13
2018-09-05T05:37:33.665Z,73.13
2018-09-05T05:38:33.698Z,73.13
2018-09-05T05:39:33.727Z,78.75
2018-09-05T05:40:33.756Z,78.75
2018-09-05T05:41:33.791Z,84.38
2018-09-05T05:42:33.824Z,84.38
2018-09-05T05:43:33.852Z,90.00
2018-09-05T05:44:33.929Z,90.00
2018-09-05T05:45:33.910Z,95.63
2018-09-05T05:46:33.975Z,95.63
2018-09-05T05:47:33.974Z,95.63
2018-09-05T05:48:34.003Z,101.25
2018-09-05T05:49:34.041Z,101.25
2018-09-05T05:50:34.069Z,106.88
2018-09-05T05:51:34.099Z,106.88
2018-09-05T05:52:34.127Z,112.50
2018-09-05T05:53:34.160Z,118.13
2018-09-05T05:54:34.191Z,118.13
2018-09-05T05:55:34.221Z,123.75
2018-09-05T05:56:34.252Z,123.75
2018-09-05T05:57:34.284Z,123.75
2018-09-05T05:58:34.316Z,129.38
2018-09-05T05:59:34.347Z,129.38
2018-09-05T06:00:34.375Z,135.00
2018-09-05T06:01:34.411Z,135.00
2018-09-05T06:02:34.442Z,135.00
2018-09-05T06:03:34.470Z,140.63
2018-09-05T06:04:34.497Z,140.63
2018-09-05T06:05:34.531Z,140.63
2018-09-05T06:06:34.561Z,140.63
2018-09-05T06:07:34.588Z,146.25
2018-09-05T06:08:34.617Z,146.25
2018-09-05T06:09:34.654Z,146.25
2018-09-05T06:10:34.683Z,151.88
2018-09-05T06:11:34.717Z,151.88
2018-09-05T06:12:34.746Z,157.50
2018-09-05T06:13:34.775Z,163.13
2018-09-05T06:14:34.810Z,163.13
2018-09-05T06:15:34.883Z,168.75
2018-09-05T06:16:34.871Z,174.38
2018-09-05T06:17:34.962Z,174.38
2018-09-05T06:18:34.929Z,180.00
2018-09-05T06:19:34.958Z,180.00
2018-09-05T06:20:34.993Z,185.63
2018-09-05T06:21:35.026Z,191.25
2018-09-05T06:22:35.063Z,196.88
2018-09-05T06:23:35.087Z,202.50
2018-09-05T06:24:35.117Z,208.13
2018-09-05T06:25:35.150Z,213.75
2018-09-05T06:26:35.183Z,219.38
2018-09-05T06:27:35.271Z,225.00
2018-09-05T06:28:35.242Z,230.63
2018-09-05T06:29:35.278Z,241.88
2018-09-05T06:30:35.411Z,247.50
2018-09-05T06:31:35.337Z,253.13
2018-09-05T06:32:35.379Z,264.38
2018-09-05T06:33:35.398Z,264.38
2018-09-05T06:34:35.430Z,270.00
2018-09-05T06:35:35.469Z,275.63
2018-09-05T06:36:35.493Z,281.25
2018-09-05T06:37:35.519Z,292.50
2018-09-05T06:38:35.555Z,298.13
2018-09-05T06:39:35.586Z,303.75
2018-09-05T06:40:35.615Z,315.00
2018-09-05T06:41:35.649Z,320.63
2018-09-05T06:42:35.676Z,331.88
2018-09-05T06:43:35.711Z,343.13
2018-09-05T06:44:35.743Z,360.00
2018-09-05T06:45:35.781Z,371.25
2018-09-05T06:46:35.804Z,382.50
2018-09-05T06:47:35.832Z,393.75
2018-09-05T06:48:35.864Z,405.00
2018-09-05T06:49:35.898Z,416.25
2018-09-05T06:50:35.928Z,421.88
2018-09-05T06:51:35.957Z,427.50
2018-09-05T06:52:35.991Z,427.50
2018-09-05T06:53:36.022Z,433.13
2018-09-05T06:54:36.052Z,438.75
2018-09-05T06:55:36.085Z,444.38
2018-09-05T06:56:36.118Z,455.63
2018-09-05T06:57:36.150Z,450.00
2018-09-05T06:58:36.182Z,450.00
2018-09-05T06:59:36.213Z,455.63
2018-09-05T07:00:36.246Z,461.25
2018-09-05T07:01:36.281Z,466.88
2018-09-05T07:02:36.304Z,472.50
2018-09-05T07:03:36.439Z,483.75
2018-09-05T07:04:36.372Z,500.63
2018-09-05T07:05:36.405Z,500.63
2018-09-05T07:06:36.464Z,500.63
2018-09-05T07:07:36.464Z,506.25
2018-09-05T07:08:36.499Z,511.88
2018-09-05T07:09:36.535Z,511.88
2018-09-05T07:10:36.563Z,500.63
2018-09-05T07:11:36.595Z,495.00
2018-09-05T07:12:36.634Z,483.75
2018-09-05T07:13:36.665Z,483.75
2018-09-05T07:14:36.769Z,483.75
2018-09-05T07:15:36.722Z,483.75
2018-09-05T07:16:36.753Z,489.38
2018-09-05T07:17:36.865Z,489.38
2018-09-05T07:18:36.820Z,483.75
2018-09-05T07:19:36.852Z,483.75
2018-09-05T07:20:36.881Z,483.75
2018-09-05T07:21:36.998Z,478.13
2018-09-05T07:22:36.949Z,489.38
2018-09-05T07:23:36.978Z,472.50
2018-09-05T07:24:37.019Z,461.25
2018-09-05T07:25:37.045Z,461.25
2018-09-05T07:26:37.077Z,455.63
2018-09-05T07:27:37.145Z,472.50
2018-09-05T07:28:37.146Z,466.88
2018-09-05T07:29:37.175Z,466.88
2018-09-05T07:30:37.312Z,466.88
2018-09-05T07:31:37.247Z,466.88
2018-09-05T07:32:37.274Z,461.25
2018-09-05T07:33:37.312Z,461.25
2018-09-05T07:34:37.335Z,466.88
2018-09-05T07:35:37.419Z,472.50
2018-09-05T07:36:37.402Z,466.88
2018-09-05T07:37:37.434Z,461.25
2018-09-05T07:38:37.466Z,455.63
2018-09-05T07:39:37.501Z,461.25
2018-09-05T07:40:37.539Z,483.75
2018-09-05T07:41:37.561Z,483.75
2018-09-05T07:42:37.600Z,495.00
2018-09-05T07:43:37.649Z,495.00
2018-09-05T07:44:37.669Z,500.63
2018-09-05T07:45:37.698Z,511.88
2018-09-05T07:46:37.736Z,511.88
2018-09-05T07:47:37.762Z,495.00
2018-09-05T07:48:37.794Z,495.00
2018-09-05T07:49:37.829Z,511.88
2018-09-05T07:50:37.887Z,562.50
2018-09-05T07:51:37.893Z,551.25
2018-09-05T07:52:37.924Z,568.13
2018-09-05T07:53:37.965Z,551.25
2018-09-05T07:54:37.992Z,556.88
2018-09-05T07:55:38.028Z,545.63
2018-09-05T07:56:38.060Z,545.63
2018-09-05T07:57:38.091Z,585.00
2018-09-05T07:58:38.123Z,540.00
2018-09-05T07:59:38.155Z,540.00
2018-09-05T08:00:38.190Z,534.38
2018-09-05T08:01:38.222Z,540.00
2018-09-05T08:02:38.251Z,556.88
2018-09-05T08:03:38.289Z,562.50
2018-09-05T08:04:38.318Z,579.38
2018-09-05T08:05:38.366Z,596.25
2018-09-05T08:06:38.393Z,601.88
2018-09-05T08:07:38.420Z,613.13
2018-09-05T08:08:38.454Z,596.25
2018-09-05T08:09:38.489Z,601.88
2018-09-05T08:10:38.518Z,613.13
2018-09-05T08:11:38.621Z,624.38
2018-09-05T08:12:38.584Z,663.75
2018-09-05T08:13:38.620Z,618.75
2018-09-05T08:14:38.652Z,613.13
2018-09-05T08:15:38.701Z,601.88
2018-09-05T08:16:38.716Z,613.13
2018-09-05T08:17:38.755Z,624.38
2018-09-05T08:18:38.786Z,646.88
2018-09-05T08:19:38.818Z,680.63
2018-09-05T08:20:38.851Z,1068.75
2018-09-05T08:21:38.882Z,1074.38
2018-09-05T08:22:38.915Z,787.50
2018-09-05T08:23:38.950Z,815.63
2018-09-05T08:24:39.045Z,961.88
2018-09-05T08:25:39.020Z,781.88
2018-09-05T08:26:39.049Z,810.00
2018-09-05T08:27:39.089Z,838.13
2018-09-05T08:28:39.117Z,1873.13
2018-09-05T08:29:39.153Z,900.00
2018-09-05T08:30:39.188Z,832.50
2018-09-05T08:31:39.225Z,748.13
2018-09-05T08:32:39.255Z,776.25
2018-09-05T08:33:39.294Z,978.75
2018-09-05T08:34:39.394Z,894.38
2018-09-05T08:35:39.624Z,978.75
2018-09-05T08:36:39.582Z,888.75
2018-09-05T08:37:39.542Z,1316.25
2018-09-05T08:38:39.467Z,838.13
2018-09-05T08:39:39.488Z,838.13
2018-09-05T08:40:39.523Z,753.75
2018-09-05T08:41:39.574Z,753.75
2018-09-05T08:42:39.597Z,781.88
2018-09-05T08:43:39.733Z,804.38
2018-09-05T08:44:39.779Z,787.50
2018-09-05T08:45:39.982Z,911.25
2018-09-05T08:46:39.735Z,798.75
2018-09-05T08:47:39.807Z,826.88
2018-09-05T08:48:39.825Z,798.75
2018-09-05T08:49:39.832Z,826.88
2018-09-05T08:50:39.868Z,855.00
2018-09-05T08:51:39.908Z,905.63
2018-09-05T08:52:39.946Z,1018.13
2018-09-05T08:53:39.966Z,860.63
2018-09-05T08:54:40.001Z,843.75
2018-09-05T08:55:40.036Z,843.75
2018-09-05T08:56:40.068Z,843.75
2018-09-05T08:57:40.098Z,860.63
2018-09-05T08:58:40.153Z,894.38
2018-09-05T08:59:40.188Z,1299.38
2018-09-05T09:00:40.239Z,1614.38
2018-09-05T09:01:40.239Z,2655.00
2018-09-05T09:02:40.278Z,2283.75
2018-09-05T09:03:40.306Z,1271.25
2018-09-05T09:04:40.368Z,1625.63
2018-09-05T09:05:40.378Z,1766.25
2018-09-05T09:06:40.416Z,2098.13
2018-09-05T09:07:40.441Z,1338.75
2018-09-05T09:08:40.495Z,1209.38
2018-09-05T09:09:40.514Z,1175.63
2018-09-05T09:10:40.552Z,1546.88
2018-09-05T09:11:40.621Z,1586.25
2018-09-05T09:12:40.616Z,1698.75
2018-09-05T09:13:40.652Z,1434.38
2018-09-05T09:14:40.731Z,1428.75
2018-09-05T09:15:40.725Z,1597.50
2018-09-05T09:16:40.760Z,1417.50
2018-09-05T09:17:40.795Z,1389.38
2018-09-05T09:18:40.827Z,1316.25
2018-09-05T09:19:40.866Z,1260.00
2018-09-05T09:20:40.899Z,1215.00
2018-09-05T09:21:40.941Z,1265.63
2018-09-05T09:22:40.976Z,1873.13
2018-09-05T09:23:41.008Z,1215.00
2018-09-05T09:24:41.040Z,1231.88
2018-09-05T09:25:41.078Z,1220.63
2018-09-05T09:26:41.115Z,1310.63
2018-09-05T09:27:41.185Z,1260.00
2018-09-05T09:28:41.191Z,2143.13
2018-09-05T09:29:41.223Z,1299.38
2018-09-05T09:30:41.255Z,1136.25
2018-09-05T09:31:41.300Z,1164.38
2018-09-05T09:32:41.332Z,1164.38
2018-09-05T09:33:41.367Z,1063.13
2018-09-05T09:34:41.399Z,1018.13
2018-09-05T09:35:41.438Z,984.38
2018-09-05T09:36:41.476Z,967.50
2018-09-05T09:37:41.512Z,939.38
2018-09-05T09:38:41.544Z,933.75
2018-09-05T09:39:41.586Z,939.38
2018-09-05T09:40:41.621Z,973.13
2018-09-05T09:41:41.656Z,990.00
2018-09-05T09:42:41.701Z,961.88
2018-09-05T09:43:41.733Z,961.88
2018-09-05T09:44:41.766Z,900.00
2018-09-05T09:45:41.798Z,866.25
2018-09-05T09:46:41.875Z,860.63
2018-09-05T09:47:41.874Z,877.50
2018-09-05T09:48:41.908Z,871.88
2018-09-05T09:49:41.946Z,849.38
2018-09-05T09:50:41.988Z,832.50
2018-09-05T09:51:42.020Z,810.00
2018-09-05T09:52:42.055Z,804.38
2018-09-05T09:53:42.085Z,793.13
2018-09-05T09:54:42.124Z,776.25
2018-09-05T09:55:42.162Z,759.38
2018-09-05T09:56:42.232Z,748.13
2018-09-05T09:57:42.235Z,742.50
2018-09-05T09:58:42.278Z,776.25
2018-09-05T09:59:42.305Z,770.63
2018-09-05T10:00:42.350Z,759.38
2018-09-05T10:01:42.379Z,748.13
2018-09-05T10:02:42.411Z,742.50
2018-09-05T10:03:42.678Z,736.88
2018-09-05T10:04:42.544Z,736.88
2018-09-05T10:05:42.528Z,725.63
2018-09-05T10:06:42.616Z,708.75
2018-09-05T10:07:42.595Z,703.13
2018-09-05T10:08:42.630Z,714.38
2018-09-05T10:09:42.689Z,731.25
2018-09-05T10:10:42.739Z,748.13
2018-09-05T10:11:42.739Z,765.00
2018-09-05T10:12:42.778Z,787.50
2018-09-05T10:13:42.814Z,798.75
2018-09-05T10:14:42.860Z,804.38
2018-09-05T10:15:42.887Z,810.00
2018-09-05T10:16:42.937Z,832.50
2018-09-05T10:17:42.956Z,855.00
2018-09-05T10:18:42.993Z,900.00
2018-09-05T10:19:43.024Z,939.38
2018-09-05T10:20:43.059Z,995.63
2018-09-05T10:21:43.111Z,1051.88
2018-09-05T10:22:43.211Z,1040.63
2018-09-05T10:23:43.176Z,1085.63
2018-09-05T10:24:43.206Z,1080.00
2018-09-05T10:25:43.244Z,1153.13
2018-09-05T10:26:43.283Z,1198.13
2018-09-05T10:27:43.307Z,1552.50
2018-09-05T10:28:43.354Z,1305.00
2018-09-05T10:29:43.393Z,1310.63
2018-09-05T10:30:43.430Z,1299.38
2018-09-05T10:31:43.516Z,1209.38
2018-09-05T10:32:43.497Z,1186.88
2018-09-05T10:33:43.537Z,1265.63
2018-09-05T10:34:43.570Z,1366.88
2018-09-05T10:35:43.604Z,1490.63
2018-09-05T10:36:43.639Z,1468.13
2018-09-05T10:37:43.678Z,1496.25
2018-09-05T10:38:43.713Z,1344.38
2018-09-05T10:39:43.745Z,1243.13
2018-09-05T10:40:43.787Z,1305.00
2018-09-05T10:41:43.822Z,1411.88
2018-09-05T10:42:43.859Z,1366.88
2018-09-05T10:43:43.893Z,1518.75
2018-09-05T10:44:43.935Z,1738.13
2018-09-05T10:45:43.963Z,1513.13
2018-09-05T10:46:44.002Z,2368.13
2018-09-05T10:47:44.041Z,1625.63
2018-09-05T10:48:44.079Z,1451.25
2018-09-05T10:49:44.121Z,1693.13
2018-09-05T10:50:44.147Z,2823.75
2018-09-05T10:51:44.241Z,1698.75
2018-09-05T10:52:44.224Z,1670.63
2018-09-05T10:53:44.255Z,1580.63
2018-09-05T10:54:44.296Z,1597.50
2018-09-05T10:55:44.334Z,1766.25
2018-09-05T10:56:44.380Z,1687.50
2018-09-05T10:57:44.417Z,1614.38
2018-09-05T10:58:44.446Z,1732.50
2018-09-05T10:59:44.481Z,1771.88
2018-09-05T11:00:44.515Z,2148.75
2018-09-05T11:01:44.550Z,2373.75
2018-09-05T11:02:44.593Z,2857.50
2018-09-05T11:03:44.630Z,3808.13
2018-09-05T11:04:44.668Z,2272.50
2018-09-05T11:05:44.706Z,2761.88
2018-09-05T11:06:44.741Z,3363.75
2018-09-05T11:07:44.780Z,2171.25
2018-09-05T11:08:44.817Z,2936.25
2018-09-05T11:09:44.856Z,2463.75
2018-09-05T11:10:44.916Z,2238.75
2018-09-05T11:11:44.929Z,2053.13
2018-09-05T11:12:44.967Z,2238.75
2018-09-05T11:13:45.006Z,2109.38
2018-09-05T11:14:45.054Z,1951.88
2018-09-05T11:15:45.082Z,1771.88
2018-09-05T11:16:45.124Z,1670.63
2018-09-05T11:17:45.159Z,1777.50
2018-09-05T11:18:45.197Z,1794.38
2018-09-05T11:19:45.232Z,1929.38
2018-09-05T11:20:45.271Z,1946.25
2018-09-05T11:21:45.312Z,1811.25
2018-09-05T11:22:45.347Z,1749.38
2018-09-05T11:23:45.391Z,1833.75
2018-09-05T11:24:45.427Z,1884.38
2018-09-05T11:25:45.466Z,1985.63
2018-09-05T11:26:45.500Z,1929.38
2018-09-05T11:27:45.644Z,2205.00
2018-09-05T11:28:45.587Z,1681.88
2018-09-05T11:29:45.615Z,1608.75
2018-09-05T11:30:45.657Z,1749.38
2018-09-05T11:31:45.690Z,1912.50
2018-09-05T11:32:45.731Z,1721.25
2018-09-05T11:33:45.780Z,1681.88
2018-09-05T11:34:45.812Z,1693.13
2018-09-05T11:35:45.851Z,1479.38
2018-09-05T11:36:45.975Z,1361.25
2018-09-05T11:37:45.931Z,1265.63
2018-09-05T11:38:45.962Z,1254.38
2018-09-05T11:39:46.001Z,1198.13
2018-09-05T11:40:46.052Z,1248.75
2018-09-05T11:41:46.097Z,1507.50
2018-09-05T11:42:46.119Z,1282.50
2018-09-05T11:43:46.161Z,1305.00
2018-09-05T11:44:46.203Z,1383.75
2018-09-05T11:45:46.238Z,1485.00
2018-09-05T11:46:46.286Z,1501.88
2018-09-05T11:47:46.312Z,1321.88
2018-09-05T11:48:46.351Z,1248.75
2018-09-05T11:49:46.391Z,1248.75
2018-09-05T11:50:46.427Z,1338.75
2018-09-05T11:51:46.471Z,1344.38
2018-09-05T11:52:46.514Z,1451.25
2018-09-05T11:53:46.547Z,1428.75
2018-09-05T11:54:46.591Z,1614.38
2018-09-05T11:55:46.629Z,1434.38
2018-09-05T11:56:46.673Z,1462.50
2018-09-05T11:57:46.701Z,1366.88
2018-09-05T11:58:46.741Z,1305.00
2018-09-05T11:59:46.796Z,1293.75
2018-09-05T12:00:46.817Z,1288.13
2018-09-05T12:01:46.855Z,1321.88
2018-09-05T12:02:46.901Z,1462.50
2018-09-05T12:03:46.930Z,1417.50
2018-09-05T12:04:46.999Z,1434.38
2018-09-05T12:05:47.017Z,1411.88
2018-09-05T12:06:47.052Z,1462.50
2018-09-05T12:07:47.087Z,1355.63
2018-09-05T12:08:47.125Z,1316.25
2018-09-05T12:09:47.169Z,1468.13
2018-09-05T12:10:47.208Z,1327.50
2018-09-05T12:11:47.319Z,1321.88
2018-09-05T12:12:47.276Z,1293.75
2018-09-05T12:13:47.319Z,1338.75
2018-09-05T12:14:47.360Z,1237.50
2018-09-05T12:15:47.402Z,1158.75
2018-09-05T12:16:47.437Z,1091.25
2018-09-05T12:17:47.475Z,1040.63
2018-09-05T12:18:47.527Z,1029.38
2018-09-05T12:19:47.562Z,1006.88
2018-09-05T12:20:47.590Z,1018.13
2018-09-05T12:21:47.649Z,990.00
2018-09-05T12:22:47.671Z,967.50
2018-09-05T12:23:47.712Z,933.75
2018-09-05T12:24:47.750Z,900.00
2018-09-05T12:25:47.788Z,883.13
2018-09-05T12:26:47.830Z,877.50
2018-09-05T12:27:47.862Z,866.25
2018-09-05T12:28:47.902Z,866.25
2018-09-05T12:29:47.949Z,871.88
2018-09-05T12:30:47.979Z,894.38
2018-09-05T12:31:48.018Z,905.63
2018-09-05T12:32:48.064Z,928.13
2018-09-05T12:33:48.100Z,916.88
2018-09-05T12:34:48.138Z,911.25
2018-09-05T12:35:48.176Z,916.88
2018-09-05T12:36:48.215Z,922.50
2018-09-05T12:37:48.253Z,939.38
2018-09-05T12:38:48.296Z,922.50
2018-09-05T12:39:48.331Z,888.75
2018-09-05T12:40:48.368Z,860.63
2018-09-05T12:41:48.407Z,877.50
2018-09-05T12:42:48.445Z,843.75
2018-09-05T12:43:48.481Z,883.13